Eastend, Canada
Current Conditions -  °F | °C
As of 9:00 AM on Sunday 21 Dec 2014 (Local Time) from CYYN Reporting Station
Clear Clear  
Wind Chill: 12°   Ceiling: Unl
Heat Index: 25°   Visibility: 9mi
Dew Point: 19°   Wind: 15mph
Humidity: 80%   Direction: 170°S
Pressure: 29.27"   Gusts: NA
Location:  49.52°N, 108.82°W
Report Text: CYYN 211500Z AUTO 17013KT 9SM CLR M04/M07 A2927 RMK SLP946
Loading
Personal Weather Stations






























Interactive Weather Map New forecast layout! Learn more

10-Day Weather Forecast

Advertisements
Track Severe Weather on mobile